Time;durP1;ratioP1;P1;durP2;ratioP2;P2;SDS_P1;SDS_P2;PMS_P1;PMS_P2;Temp;Humidity;BMP_temperature;BMP_pressure;BME280_temperature;BME280_humidity;BME280_pressure;Samples;Min_cycle;Max_cycle;Signal;HPM_P1;HPM_P2
2022/12/15 00:39:03;;;;;;;26.58;15.77;;;-6.30;99.90;;;;;;5026593;28;20192;-70
2022/12/15 00:41:29;;;;;;;34.17;20.37;;;-6.40;99.90;;;;;;5025109;28;20204;-70
2022/12/15 00:43:54;;;;;;;24.13;16.60;;;-6.40;99.90;;;;;;5027376;28;20550;-70
2022/12/15 00:50:50;;;;;;;33.05;20.50;;;-6.50;99.90;;;;;;5028941;28;20193;-70
2022/12/15 01:21:57;;;;;;;33.72;19.65;;;-6.50;99.90;;;;;;5024488;28;20692;-72
2022/12/15 01:24:23;;;;;;;27.23;17.90;;;-6.60;99.90;;;;;;5025041;28;20179;-70
2022/12/15 01:26:48;;;;;;;26.90;17.80;;;-6.70;99.90;;;;;;5027945;28;20196;-70
2022/12/15 01:29:14;;;;;;;34.30;22.40;;;-6.60;99.90;;;;;;5029028;28;20501;-69
2022/12/15 01:31:40;;;;;;;29.23;19.30;;;-6.60;99.90;;;;;;5027205;28;20191;-70
2022/12/15 01:34:06;;;;;;;28.13;18.90;;;-6.60;99.90;;;;;;5024727;28;20183;-69
2022/12/15 01:36:31;;;;;;;28.27;21.60;;;-6.50;99.90;;;;;;5028013;28;20201;-70
2022/12/15 01:38:57;;;;;;;34.17;20.43;;;-6.50;99.90;;;;;;5011404;28;20183;-69
2022/12/15 01:41:23;;;;;;;22.60;17.13;;;-6.40;99.90;;;;;;5025239;28;20204;-71
2022/12/15 01:43:49;;;;;;;28.23;19.58;;;-6.40;99.90;;;;;;5027577;28;20524;-70
2022/12/15 01:46:17;;;;;;;35.73;19.37;;;-6.40;99.90;;;;;;5026253;28;20197;-70
2022/12/15 01:48:43;;;;;;;29.08;18.50;;;-6.30;99.90;;;;;;5030436;28;20256;-70
2022/12/15 01:51:12;;;;;;;26.87;16.73;;;-6.30;99.90;;;;;;5034151;28;20202;-70
2022/12/15 01:54:01;;;;;;;40.45;18.35;;;-6.30;99.90;;;;;;5024711;28;20179;-69
2022/12/15 01:56:30;;;;;;;30.67;17.73;;;-6.20;99.90;;;;;;5027482;28;20225;-70
2022/12/15 01:59:01;;;;;;;30.60;18.85;;;-6.30;99.90;;;;;;5024779;28;20199;-69
2022/12/15 02:01:26;;;;;;;35.67;16.90;;;-6.40;99.90;;;;;;5025408;28;20946;-69
2022/12/15 02:03:52;;;;;;;33.67;18.53;;;-6.50;99.90;;;;;;5025855;28;20299;-70
2022/12/15 02:06:21;;;;;;;33.40;18.93;;;-6.60;99.90;;;;;;5023557;28;20251;-70
2022/12/15 02:08:51;;;;;;;30.67;18.90;;;-6.60;99.90;;;;;;5028046;28;20190;-71
2022/12/15 02:11:40;;;;;;;29.80;20.73;;;-6.50;99.90;;;;;;5028453;28;20175;-70
2022/12/15 02:14:08;;;;;;;32.88;16.70;;;-6.60;99.90;;;;;;5028551;28;20524;-70
2022/12/15 02:16:37;;;;;;;31.58;19.23;;;-6.60;99.90;;;;;;5025879;28;20241;-69
2022/12/15 02:19:40;;;;;;;29.73;18.90;;;-6.60;99.90;;;;;;5021698;28;20175;-71
2022/12/15 02:22:36;;;;;;;40.40;22.17;;;-6.70;99.90;;;;;;5033354;28;20219;-70
2022/12/15 02:25:40;;;;;;;37.03;19.40;;;-6.70;99.90;;;;;;5030207;28;20247;-70
2022/12/15 02:28:27;;;;;;;27.45;17.88;;;-6.70;99.90;;;;;;5029001;28;20171;-69
2022/12/15 02:34:32;;;;;;;24.93;15.53;;;-6.80;99.90;;;;;;5032284;28;20397;-69
2022/12/15 02:37:23;;;;;;;33.90;20.00;;;-6.80;99.90;;;;;;5028952;28;20462;-69
2022/12/15 02:39:49;;;;;;;29.45;19.33;;;-6.70;99.90;;;;;;5021108;28;20184;-69
2022/12/15 02:42:14;;;;;;;38.83;18.40;;;-6.70;99.90;;;;;;5027235;28;20593;-70
2022/12/15 02:44:45;;;;;;;28.43;17.07;;;-6.50;99.90;;;;;;5033306;28;20178;-69
2022/12/15 02:47:20;;;;;;;37.65;17.67;;;-6.40;99.90;;;;;;5026180;28;20168;-69
2022/12/15 02:49:58;;;;;;;43.40;20.80;;;-6.40;99.90;;;;;;5025837;28;20214;-69
2022/12/15 02:52:33;;;;;;;34.20;18.73;;;-6.40;99.90;;;;;;5031290;28;20249;-69
2022/12/15 02:55:14;;;;;;;35.47;21.05;;;-6.20;99.90;;;;;;5031625;28;20202;-70
2022/12/15 02:57:47;;;;;;;46.78;22.27;;;-6.20;99.90;;;;;;5027901;28;20428;-70
2022/12/15 03:00:14;;;;;;;28.65;18.60;;;-6.20;99.90;;;;;;5034277;28;20696;-68
2022/12/15 03:02:53;;;;;;;27.92;18.13;;;-6.10;99.90;;;;;;5029843;28;20215;-69
2022/12/15 03:05:20;;;;;;;25.30;18.02;;;-6.10;99.90;;;;;;5031277;28;20183;-69
2022/12/15 03:07:49;;;;;;;27.83;19.10;;;-5.90;99.90;;;;;;5029964;28;20190;-69
2022/12/15 03:10:16;;;;;;;25.97;16.37;;;-5.90;99.90;;;;;;5027985;28;20179;-70
2022/12/15 03:12:42;;;;;;;26.67;20.33;;;-5.80;99.90;;;;;;5032406;28;20502;-69
2022/12/15 03:15:07;;;;;;;36.83;19.27;;;-5.80;99.90;;;;;;5032576;28;20305;-69
2022/12/15 03:17:33;;;;;;;25.30;19.67;;;-5.70;99.90;;;;;;5032078;28;20192;-70
2022/12/15 03:19:59;;;;;;;26.27;16.53;;;-5.80;99.90;;;;;;5027521;28;20789;-70
2022/12/15 03:22:24;;;;;;;31.90;19.63;;;-5.80;99.90;;;;;;5027510;28;20208;-71
2022/12/15 03:24:50;;;;;;;23.83;15.73;;;-5.80;99.90;;;;;;5025127;28;20199;-70
2022/12/15 03:27:15;;;;;;;39.53;17.80;;;-5.80;99.90;;;;;;5026975;28;20175;-70
2022/12/15 03:29:41;;;;;;;33.67;18.03;;;-5.90;99.90;;;;;;5025821;28;20254;-70
2022/12/15 03:32:07;;;;;;;32.63;17.20;;;-6.00;99.90;;;;;;5035719;28;20219;-70
2022/12/15 03:34:32;;;;;;;29.63;16.60;;;-5.90;99.90;;;;;;5043893;28;20512;-69
2022/12/15 03:36:58;;;;;;;31.07;18.43;;;-5.90;99.90;;;;;;5041053;28;20223;-69
2022/12/15 03:39:24;;;;;;;27.00;16.57;;;-5.90;99.90;;;;;;5041889;28;20605;-70
2022/12/15 03:41:49;;;;;;;28.70;17.53;;;-5.90;99.90;;;;;;5041261;28;20191;-69
2022/12/15 03:44:15;;;;;;;33.80;18.90;;;-5.90;99.90;;;;;;5027662;28;20171;-68
2022/12/15 03:46:40;;;;;;;32.40;16.87;;;-5.90;99.90;;;;;;5039164;28;20204;-70
2022/12/15 03:49:06;;;;;;;33.33;17.13;;;-5.80;99.90;;;;;;5046580;28;20673;-70
2022/12/15 03:51:32;;;;;;;25.30;15.87;;;-5.80;99.90;;;;;;5048178;28;20182;-69
2022/12/15 03:53:57;;;;;;;37.77;19.53;;;-5.80;99.90;;;;;;5040844;28;20190;-69
2022/12/15 03:56:24;;;;;;;35.70;15.70;;;-5.70;99.90;;;;;;5041650;28;20336;-70
2022/12/15 03:58:49;;;;;;;35.47;17.70;;;-5.80;99.90;;;;;;5043141;28;20943;-69
2022/12/15 04:01:17;;;;;;;24.07;17.30;;;-5.80;99.90;;;;;;5039561;28;20453;-70
2022/12/15 04:03:43;;;;;;;28.15;18.17;;;-5.80;99.90;;;;;;5041169;28;20183;-69
2022/12/15 04:06:09;;;;;;;26.00;15.57;;;-5.90;99.90;;;;;;5038549;28;20192;-69
2022/12/15 04:08:35;;;;;;;28.00;18.47;;;-6.00;99.90;;;;;;5044695;28;20193;-68
2022/12/15 04:11:00;;;;;;;35.90;16.57;;;-6.00;99.90;;;;;;5039506;28;20186;-69
2022/12/15 04:13:26;;;;;;;31.37;18.83;;;-6.10;99.90;;;;;;5047571;28;20927;-69
2022/12/15 04:15:51;;;;;;;27.33;17.80;;;-6.20;99.90;;;;;;5034699;28;20558;-69
2022/12/15 04:18:17;;;;;;;32.10;17.13;;;-6.20;99.90;;;;;;5036929;28;20168;-69
2022/12/15 04:20:43;;;;;;;31.80;18.47;;;-6.30;99.90;;;;;;5037400;28;20168;-69
2022/12/15 04:23:08;;;;;;;25.27;15.63;;;-6.30;99.90;;;;;;5047816;28;20325;-69
2022/12/15 05:31:53;;;;;;;20.33;15.60;;;-6.60;99.90;;;;;;5034320;28;20544;-68
2022/12/15 05:34:25;;;;;;;19.55;13.82;;;-6.60;99.90;;;;;;5034938;28;20258;-71
2022/12/15 05:36:51;;;;;;;20.20;14.07;;;-6.60;99.90;;;;;;5041423;28;20199;-70
2022/12/15 05:39:18;;;;;;;25.90;14.35;;;-6.70;99.90;;;;;;5033202;28;20176;-69
2022/12/15 05:41:44;;;;;;;26.95;13.65;;;-6.70;99.90;;;;;;5041065;28;20218;-70
2022/12/15 05:44:09;;;;;;;25.77;12.90;;;-6.80;99.90;;;;;;5047718;28;20174;-70
2022/12/15 05:46:35;;;;;;;29.53;15.87;;;-6.80;99.90;;;;;;5041863;28;20433;-68
2022/12/15 05:49:10;;;;;;;22.70;15.47;;;-6.90;99.90;;;;;;5035535;28;20179;-69
2022/12/15 05:51:40;;;;;;;25.05;13.10;;;-6.90;99.90;;;;;;5050065;28;20199;-70
2022/12/15 05:54:07;;;;;;;19.85;13.43;;;-6.90;99.90;;;;;;5042900;28;20692;-70
2022/12/15 05:56:34;;;;;;;24.73;15.77;;;-6.90;99.90;;;;;;5043878;28;20210;-69
2022/12/15 05:59:00;;;;;;;31.10;16.13;;;-7.00;99.90;;;;;;5042433;28;20278;-68
2022/12/15 06:01:26;;;;;;;24.50;12.37;;;-7.00;99.90;;;;;;5042617;28;20202;-69
2022/12/15 06:03:52;;;;;;;20.75;14.30;;;-7.10;99.90;;;;;;5033862;28;20171;-69
2022/12/15 06:06:19;;;;;;;21.37;16.47;;;-7.10;99.90;;;;;;5042005;28;20195;-68
2022/12/15 06:08:44;;;;;;;29.90;16.65;;;-7.10;99.90;;;;;;5035206;28;20222;-70
2022/12/15 06:11:15;;;;;;;27.17;20.40;;;-7.20;99.90;;;;;;5035178;28;20215;-70
2022/12/15 06:13:40;;;;;;;31.25;17.17;;;-7.20;99.90;;;;;;5032314;28;20422;-69
2022/12/15 06:16:14;;;;;;;27.40;14.73;;;-7.30;99.90;;;;;;5038740;28;20221;-69
2022/12/15 06:18:44;;;;;;;24.90;16.52;;;-7.40;99.90;;;;;;5044034;28;20187;-69
2022/12/15 06:21:22;;;;;;;23.35;16.10;;;-7.40;99.90;;;;;;5033061;28;20176;-71
2022/12/15 06:23:48;;;;;;;29.42;15.52;;;-7.40;99.90;;;;;;5042724;28;20229;-69
2022/12/15 06:26:16;;;;;;;44.07;17.97;;;-7.40;99.90;;;;;;5039006;28;20557;-69
2022/12/15 06:28:42;;;;;;;25.15;14.65;;;-7.40;99.90;;;;;;5043900;28;20468;-68
2022/12/15 06:31:09;;;;;;;30.73;16.53;;;-7.30;99.90;;;;;;5044863;28;20645;-69
2022/12/15 06:33:36;;;;;;;40.45;20.65;;;-7.40;99.90;;;;;;5043002;28;20440;-69
2022/12/15 06:36:13;;;;;;;34.38;17.25;;;-7.40;99.90;;;;;;5046742;28;20201;-69
2022/12/15 06:38:42;;;;;;;29.55;20.00;;;-7.30;99.90;;;;;;5041800;28;20265;-70
2022/12/15 06:41:08;;;;;;;30.83;16.58;;;-7.40;99.90;;;;;;5039235;28;20175;-70
2022/12/15 06:43:34;;;;;;;31.38;14.02;;;-7.40;99.90;;;;;;5031090;28;20607;-69
2022/12/15 06:46:01;;;;;;;25.00;17.00;;;-7.40;99.90;;;;;;5047219;28;20195;-70
2022/12/15 06:48:26;;;;;;;22.73;14.68;;;-7.50;99.90;;;;;;5045420;28;20186;-70
2022/12/15 06:50:52;;;;;;;25.10;14.77;;;-7.50;99.90;;;;;;5039748;28;20257;-69
2022/12/15 06:53:20;;;;;;;37.40;17.50;;;-7.40;99.90;;;;;;5041645;28;20418;-69
2022/12/15 06:55:47;;;;;;;24.65;15.32;;;-7.50;99.90;;;;;;5036983;28;20437;-69
2022/12/15 06:58:13;;;;;;;26.85;16.05;;;-7.50;99.90;;;;;;5041827;28;20616;-71
2022/12/15 07:00:41;;;;;;;22.13;14.93;;;-7.60;99.90;;;;;;5030036;28;20212;-70
2022/12/15 07:03:11;;;;;;;31.85;16.02;;;-7.50;99.90;;;;;;5035614;28;20302;-69
2022/12/15 07:05:37;;;;;;;26.80;18.40;;;-7.50;99.90;;;;;;5045882;28;20210;-70
2022/12/15 07:08:03;;;;;;;29.40;12.90;;;-7.50;99.90;;;;;;5040718;28;20183;-69
2022/12/15 07:10:28;;;;;;;26.97;17.30;;;-7.50;99.90;;;;;;5034599;28;20546;-68
2022/12/15 07:12:57;;;;;;;27.00;17.47;;;-7.50;99.90;;;;;;5043446;28;20672;-71
2022/12/15 07:15:23;;;;;;;24.33;15.27;;;-7.50;99.90;;;;;;5047103;28;20218;-70
2022/12/15 07:17:49;;;;;;;29.20;16.45;;;-7.30;99.90;;;;;;5052805;28;20504;-68
2022/12/15 07:20:15;;;;;;;20.05;13.55;;;-7.30;99.90;;;;;;5043903;28;20179;-68
2022/12/15 07:22:41;;;;;;;25.80;16.20;;;-7.40;99.90;;;;;;5048414;28;20230;-69
2022/12/15 07:25:07;;;;;;;22.77;14.00;;;-7.40;99.90;;;;;;5047158;28;20233;-69
2022/12/15 07:27:33;;;;;;;22.58;10.77;;;-7.40;99.90;;;;;;5030336;28;20167;-70
2022/12/15 07:29:58;;;;;;;33.47;15.73;;;-7.40;99.90;;;;;;5049338;28;20665;-67
2022/12/15 07:32:24;;;;;;;37.73;17.70;;;-7.40;99.90;;;;;;5044160;28;20205;-67
2022/12/15 07:34:50;;;;;;;21.80;15.50;;;-7.20;99.90;;;;;;5049443;28;20167;-70
2022/12/15 07:37:15;;;;;;;23.10;11.77;;;-7.10;99.90;;;;;;5041758;28;20176;-69
2022/12/15 07:39:41;;;;;;;37.27;20.53;;;-7.10;99.90;;;;;;5035432;28;20171;-67
2022/12/15 07:42:07;;;;;;;33.23;15.87;;;-7.20;99.90;;;;;;5039958;28;20341;-69
2022/12/15 07:44:32;;;;;;;23.40;16.77;;;-7.30;99.90;;;;;;5030000;28;20179;-69
2022/12/15 07:46:58;;;;;;;22.27;12.63;;;-7.30;99.90;;;;;;5037886;28;20779;-69
2022/12/15 07:49:23;;;;;;;20.30;13.80;;;-7.30;99.90;;;;;;5036944;28;20171;-69
2022/12/15 07:51:49;;;;;;;32.97;17.70;;;-7.20;99.90;;;;;;5038662;28;20175;-68
2022/12/15 07:54:15;;;;;;;17.83;14.27;;;-7.20;99.90;;;;;;5043750;28;20237;-69
2022/12/15 07:56:40;;;;;;;24.30;13.70;;;-7.20;99.90;;;;;;5032983;28;20198;-68
2022/12/15 07:59:06;;;;;;;45.10;17.00;;;-7.10;99.90;;;;;;5037808;28;20171;-71
2022/12/15 08:01:33;;;;;;;32.20;13.07;;;-7.00;99.90;;;;;;5049472;28;20499;-66
2022/12/15 08:03:59;;;;;;;23.13;14.52;;;-6.90;99.90;;;;;;5047337;28;20480;-70
2022/12/15 08:06:25;;;;;;;26.83;14.10;;;-7.00;99.90;;;;;;5045782;28;20657;-70
2022/12/15 08:08:51;;;;;;;24.53;14.43;;;-7.00;99.90;;;;;;5046638;28;20220;-70
2022/12/15 08:11:18;;;;;;;30.17;19.07;;;-7.00;99.90;;;;;;5048978;28;20916;-68
2022/12/15 08:13:43;;;;;;;22.40;13.63;;;-7.00;99.90;;;;;;5036328;28;20614;-69
2022/12/15 08:16:10;;;;;;;18.43;13.37;;;-7.00;99.90;;;;;;5049012;28;20250;-69
2022/12/15 08:18:35;;;;;;;23.10;15.48;;;-6.90;99.90;;;;;;5033241;28;20259;-69
2022/12/15 08:21:03;;;;;;;24.80;14.47;;;-6.90;99.90;;;;;;5038534;28;20661;-69
2022/12/15 08:23:30;;;;;;;29.08;15.82;;;-6.80;99.90;;;;;;5033147;28;20516;-69
2022/12/15 08:26:02;;;;;;;29.83;14.82;;;-6.70;99.90;;;;;;5035578;28;20195;-70
2022/12/15 08:28:28;;;;;;;26.73;15.77;;;-6.60;99.90;;;;;;5039687;28;20175;-71
2022/12/15 08:30:53;;;;;;;20.87;11.97;;;-6.50;99.90;;;;;;5043028;28;20190;-69
2022/12/15 08:33:19;;;;;;;26.10;15.13;;;-6.30;99.90;;;;;;5043926;28;20182;-68
2022/12/15 08:35:44;;;;;;;24.20;13.97;;;-5.90;99.90;;;;;;5033500;28;20645;-69
2022/12/15 08:38:10;;;;;;;21.53;15.97;;;-5.90;99.90;;;;;;5047637;28;20179;-71
2022/12/15 08:40:35;;;;;;;24.93;15.43;;;-5.80;99.90;;;;;;5045298;28;20179;-71
2022/12/15 08:43:02;;;;;;;21.67;13.10;;;-6.00;99.90;;;;;;5048150;28;20647;-69
2022/12/15 08:45:27;;;;;;;24.63;15.15;;;-6.10;99.90;;;;;;5042690;28;20188;-70
2022/12/15 08:47:55;;;;;;;32.77;18.30;;;-5.80;99.90;;;;;;5048740;28;20236;-69
2022/12/15 08:50:20;;;;;;;21.25;13.20;;;-5.50;99.90;;;;;;5032294;28;20629;-69
2022/12/15 08:52:46;;;;;;;21.93;14.97;;;-5.40;99.90;;;;;;5034767;28;20263;-69
2022/12/15 08:55:11;;;;;;;29.47;17.57;;;-5.20;99.90;;;;;;5044708;28;20662;-68
2022/12/15 08:57:39;;;;;;;20.97;15.43;;;-5.50;99.90;;;;;;5045880;28;20270;-68
2022/12/15 09:00:05;;;;;;;16.02;13.93;;;-5.60;99.90;;;;;;5046657;28;20175;-70
2022/12/15 09:02:31;;;;;;;23.75;13.07;;;-5.70;99.90;;;;;;5040069;28;20621;-69
2022/12/15 09:04:57;;;;;;;16.52;13.02;;;-5.80;99.90;;;;;;5021415;28;20176;-69
2022/12/15 09:07:22;;;;;;;22.30;13.40;;;-5.90;99.90;;;;;;5038959;28;20164;-69
2022/12/15 09:09:48;;;;;;;17.83;13.60;;;-5.90;99.90;;;;;;5046980;28;20575;-69
2022/12/15 09:12:14;;;;;;;14.23;10.97;;;-5.90;99.90;;;;;;5040373;28;20179;-70
2022/12/15 09:14:39;;;;;;;19.33;9.77;;;-5.80;99.90;;;;;;5035529;28;20179;-70
2022/12/15 09:17:05;;;;;;;24.33;13.67;;;-5.80;99.90;;;;;;5032104;28;20544;-71
2022/12/15 09:19:30;;;;;;;23.00;14.43;;;-5.80;99.90;;;;;;5045323;28;20182;-70
2022/12/15 09:21:56;;;;;;;22.00;12.50;;;-5.80;99.90;;;;;;5047819;28;20202;-70
2022/12/15 09:24:23;;;;;;;28.37;15.67;;;-5.80;99.90;;;;;;5043531;28;20167;-69
2022/12/15 09:26:49;;;;;;;22.33;13.27;;;-5.70;99.90;;;;;;5040953;28;20206;-69
2022/12/15 09:29:15;;;;;;;23.97;15.10;;;-5.70;99.90;;;;;;5025719;28;20171;-69
2022/12/15 09:31:43;;;;;;;31.10;12.55;;;-5.60;99.90;;;;;;5039146;28;20414;-69
2022/12/15 09:34:13;;;;;;;19.25;13.23;;;-5.60;99.90;;;;;;5009265;28;20180;-69
2022/12/15 09:36:39;;;;;;;25.40;13.80;;;-5.60;99.90;;;;;;5037725;28;20195;-69
2022/12/15 09:39:05;;;;;;;21.02;14.68;;;-5.60;99.90;;;;;;5036455;28;20205;-71
2022/12/15 09:41:35;;;;;;;26.50;13.90;;;-5.60;99.90;;;;;;5036707;28;20202;-70
2022/12/15 09:44:13;;;;;;;21.50;14.25;;;-5.60;99.90;;;;;;5037269;28;20175;-70
2022/12/15 09:46:59;;;;;;;17.33;12.40;;;-5.60;99.90;;;;;;5040338;28;20199;-70
2022/12/15 09:49:51;;;;;;;19.73;11.68;;;-5.50;99.90;;;;;;5030216;28;20172;-70
2022/12/15 09:52:22;;;;;;;20.35;14.20;;;-5.50;99.90;;;;;;5046547;28;20186;-70
2022/12/15 09:54:57;;;;;;;19.65;14.20;;;-5.40;99.90;;;;;;5048336;28;20246;-70
2022/12/15 09:57:35;;;;;;;21.80;14.15;;;-5.30;99.90;;;;;;5051754;28;20228;-70
2022/12/15 10:00:13;;;;;;;22.95;14.20;;;-5.40;99.90;;;;;;5036530;28;20300;-69
2022/12/15 10:02:57;;;;;;;25.80;14.57;;;-5.40;99.90;;;;;;5042908;28;20286;-69
2022/12/15 10:05:27;;;;;;;22.20;14.73;;;-5.30;99.90;;;;;;5035704;28;20294;-70
2022/12/15 10:07:53;;;;;;;15.77;11.07;;;-5.20;99.90;;;;;;5032876;28;20179;-70
2022/12/15 10:10:31;;;;;;;27.23;15.50;;;-5.10;99.90;;;;;;5039133;28;20231;-70
2022/12/15 10:13:03;;;;;;;26.63;13.68;;;-4.90;99.90;;;;;;5044061;28;20195;-70
2022/12/15 10:15:44;;;;;;;31.90;16.73;;;-4.80;99.90;;;;;;5041895;28;20218;-70
2022/12/15 10:18:25;;;;;;;22.87;16.40;;;-4.60;99.90;;;;;;5024171;28;20434;-69
2022/12/15 10:20:54;;;;;;;28.10;15.70;;;-4.30;99.90;;;;;;5036120;28;20421;-70
2022/12/15 10:23:20;;;;;;;25.13;15.93;;;-4.20;99.90;;;;;;5023667;28;20515;-70
2022/12/15 10:26:14;;;;;;;21.83;12.50;;;-4.10;99.90;;;;;;5035676;28;20431;-70
2022/12/15 10:28:40;;;;;;;20.97;14.90;;;-3.90;99.90;;;;;;5039517;28;20404;-70
2022/12/15 10:31:11;;;;;;;23.07;13.70;;;-3.80;99.90;;;;;;5036850;28;20797;-69
2022/12/15 10:33:40;;;;;;;23.20;12.93;;;-3.80;99.90;;;;;;5066140;22;20235;-67
2022/12/15 10:36:14;;;;;;;23.43;13.60;;;-3.80;99.90;;;;;;5038211;28;20417;-67
2022/12/15 10:38:44;;;;;;;25.07;13.40;;;-3.60;99.90;;;;;;5036148;28;20418;-67
2022/12/15 10:41:24;;;;;;;20.53;11.40;;;-3.50;99.90;;;;;;5029605;28;20411;-67
2022/12/15 10:43:52;;;;;;;22.70;14.37;;;-3.50;99.90;;;;;;5016821;28;20446;-67
2022/12/15 10:46:22;;;;;;;20.80;12.10;;;-3.40;99.90;;;;;;5032947;28;20441;-67
2022/12/15 10:48:58;;;;;;;19.30;13.27;;;-3.50;99.90;;;;;;5034460;28;20407;-67
2022/12/15 10:51:31;;;;;;;28.43;14.73;;;-3.70;99.90;;;;;;5037979;28;20503;-67
2022/12/15 10:53:59;;;;;;;28.27;12.00;;;-3.70;99.90;;;;;;5035040;28;20475;-67
2022/12/15 10:56:27;;;;;;;23.50;14.10;;;-3.60;99.90;;;;;;5039676;28;20468;-67
2022/12/15 10:58:55;;;;;;;20.93;12.50;;;-3.70;99.90;;;;;;5037766;28;20440;-67
2022/12/15 11:01:30;;;;;;;22.80;14.37;;;-3.60;99.90;;;;;;5024782;28;20442;-68
2022/12/15 11:03:56;;;;;;;20.77;13.10;;;-3.40;99.90;;;;;;5032091;28;20811;-68
2022/12/15 11:06:35;;;;;;;27.50;12.67;;;-3.20;99.90;;;;;;5032068;28;20456;-68
2022/12/15 11:09:26;;;;;;;21.10;12.90;;;-3.20;99.90;;;;;;5034352;28;20507;-67
2022/12/15 11:14:46;;;;;;;28.87;11.97;;;-3.30;99.90;;;;;;5029976;28;20440;-69
2022/12/15 11:17:16;;;;;;;15.37;10.57;;;-3.10;99.90;;;;;;5032490;28;20508;-68
2022/12/15 11:20:04;;;;;;;26.13;11.27;;;-3.00;99.90;;;;;;5031565;28;20987;-67
2022/12/15 11:22:57;;;;;;;22.00;13.40;;;-3.00;99.90;;;;;;5034781;28;20461;-67
2022/12/15 11:25:44;;;;;;;23.70;13.97;;;-3.00;99.90;;;;;;5040432;28;20664;-69
2022/12/15 11:28:49;;;;;;;23.87;14.33;;;-2.80;99.90;;;;;;5032743;28;20932;-68
2022/12/15 11:31:25;;;;;;;20.03;12.57;;;-2.70;99.90;;;;;;5033574;28;20441;-68
2022/12/15 11:33:52;;;;;;;25.33;11.63;;;-2.60;99.90;;;;;;5035344;28;20442;-66
2022/12/15 11:36:33;;;;;;;15.37;10.87;;;-2.40;99.90;;;;;;5030136;28;20524;-68
2022/12/15 11:39:12;;;;;;;17.53;11.23;;;-2.30;99.90;;;;;;5031249;28;20429;-68
2022/12/15 11:41:52;;;;;;;19.37;11.27;;;-2.20;99.90;;;;;;5035735;28;20514;-68
2022/12/15 11:44:26;;;;;;;25.47;13.63;;;-2.30;99.90;;;;;;5022074;28;20506;-68
2022/12/15 11:47:18;;;;;;;21.57;11.63;;;-2.20;99.90;;;;;;5037301;28;20414;-69
2022/12/15 11:49:50;;;;;;;23.90;13.13;;;-2.10;99.90;;;;;;4988447;28;20478;-68
2022/12/15 11:52:28;;;;;;;21.60;12.40;;;-2.00;99.90;;;;;;5033682;28;20780;-68
2022/12/15 11:55:21;;;;;;;26.17;13.10;;;-1.90;99.90;;;;;;5031498;28;20421;-68
2022/12/15 11:57:58;;;;;;;17.83;13.10;;;-1.80;99.90;;;;;;5009101;28;20429;-68
2022/12/15 12:00:24;;;;;;;32.77;15.00;;;-1.80;99.90;;;;;;5036412;28;20421;-69
2022/12/15 12:03:12;;;;;;;25.17;12.70;;;-1.70;99.90;;;;;;5033362;28;20462;-68
2022/12/15 12:06:05;;;;;;;21.43;13.90;;;-1.90;99.90;;;;;;5028790;28;20205;-68
2022/12/15 12:09:12;;;;;;;17.97;11.13;;;-1.80;99.90;;;;;;5028287;28;20488;-67
2022/12/15 12:11:58;;;;;;;22.17;12.97;;;-1.80;99.90;;;;;;5026552;28;20406;-67
2022/12/15 12:14:44;;;;;;;20.63;12.27;;;-1.70;99.90;;;;;;5006404;28;20441;-68
2022/12/15 12:17:25;;;;;;;18.30;12.37;;;-1.70;99.90;;;;;;5037980;28;20931;-68
2022/12/15 12:19:56;;;;;;;26.03;11.57;;;-1.70;99.90;;;;;;5031811;28;20418;-69
2022/12/15 12:22:34;;;;;;;22.90;13.23;;;-1.70;99.90;;;;;;5036527;28;20541;-69
2022/12/15 12:25:21;;;;;;;21.10;12.53;;;-1.70;99.90;;;;;;5044832;28;20484;-68
2022/12/15 12:27:58;;;;;;;24.00;12.70;;;-1.70;99.90;;;;;;5027592;28;20401;-68
2022/12/15 12:30:32;;;;;;;24.27;13.60;;;-1.60;99.90;;;;;;5027992;28;20519;-69
2022/12/15 12:33:10;;;;;;;22.57;12.17;;;-1.60;99.90;;;;;;5031131;28;20442;-69
2022/12/15 12:35:51;;;;;;;18.57;11.00;;;-1.60;99.90;;;;;;5031693;28;20433;-69
2022/12/15 12:38:25;;;;;;;22.63;12.87;;;-1.60;99.90;;;;;;5031703;28;20416;-69
2022/12/15 12:41:10;;;;;;;17.17;11.60;;;-1.60;99.90;;;;;;5017021;28;20490;-69
2022/12/15 12:43:49;;;;;;;15.83;10.50;;;-1.60;99.90;;;;;;5029510;28;20565;-68
2022/12/15 12:46:27;;;;;;;22.70;12.37;;;-1.60;99.90;;;;;;5031271;28;20490;-69
2022/12/15 12:49:49;;;;;;;22.63;12.07;;;-1.60;99.90;;;;;;5031552;28;20414;-69
2022/12/15 12:52:28;;;;;;;21.00;11.30;;;-1.50;99.90;;;;;;4951234;28;20947;-68
2022/12/15 12:55:00;;;;;;;16.23;10.27;;;-1.50;99.90;;;;;;4952515;28;20882;-67
2022/12/15 12:57:37;;;;;;;17.20;11.10;;;-1.40;99.90;;;;;;4997894;28;20995;-68
2022/12/15 13:00:18;;;;;;;22.80;12.40;;;-1.40;99.90;;;;;;5015004;28;20469;-69
2022/12/15 13:02:49;;;;;;;19.50;11.23;;;-1.50;99.90;;;;;;5027094;28;20462;-69
2022/12/15 13:05:36;;;;;;;21.50;11.83;;;-1.40;99.90;;;;;;5035632;28;20414;-68
2022/12/15 13:08:04;;;;;;;22.27;12.07;;;-1.20;99.90;;;;;;5033776;28;20448;-69
2022/12/15 13:10:33;;;;;;;19.00;12.17;;;-1.20;99.90;;;;;;5034807;28;20453;-69
2022/12/15 13:13:28;;;;;;;23.17;13.90;;;-1.30;99.90;;;;;;5032692;28;20446;-67
2022/12/15 13:16:16;;;;;;;18.07;11.37;;;-1.40;99.90;;;;;;5027124;28;20754;-68
2022/12/15 13:19:02;;;;;;;17.00;11.40;;;-1.30;99.90;;;;;;5030155;28;20822;-68
2022/12/15 13:21:45;;;;;;;21.20;11.67;;;-1.30;99.90;;;;;;5029842;28;20967;-68
2022/12/15 13:24:34;;;;;;;20.90;11.77;;;-1.30;99.90;;;;;;5038285;28;20470;-68
2022/12/15 13:27:12;;;;;;;15.60;11.07;;;-1.40;99.90;;;;;;5016312;28;20422;-69
2022/12/15 13:30:01;;;;;;;23.60;10.67;;;-1.40;99.90;;;;;;5026255;28;20414;-68
2022/12/15 13:32:32;;;;;;;14.80;11.00;;;-1.40;99.90;;;;;;5032019;28;20410;-68
2022/12/15 13:35:20;;;;;;;19.80;11.90;;;-1.40;99.90;;;;;;5033464;28;20958;-69
2022/12/15 13:38:02;;;;;;;17.30;11.80;;;-1.40;99.90;;;;;;5030904;28;20418;-69
2022/12/15 13:40:34;;;;;;;21.27;11.00;;;-1.40;99.90;;;;;;5023897;28;20505;-69
2022/12/15 13:43:30;;;;;;;23.00;13.57;;;-1.50;99.90;;;;;;5038991;28;20964;-69
2022/12/15 13:45:59;;;;;;;22.67;11.63;;;-1.50;99.90;;;;;;5030434;28;20425;-69
2022/12/15 13:48:45;;;;;;;30.30;14.10;;;-1.50;99.90;;;;;;5030235;28;20731;-68
2022/12/15 13:51:36;;;;;;;24.80;12.90;;;-1.60;99.90;;;;;;5029946;28;20904;-69
2022/12/15 13:54:03;;;;;;;16.70;10.77;;;-1.60;99.90;;;;;;5013969;28;20431;-69
2022/12/15 13:56:41;;;;;;;19.60;11.47;;;-1.70;99.90;;;;;;5029406;28;20486;-68
2022/12/15 13:59:28;;;;;;;22.90;12.60;;;-1.70;99.90;;;;;;5036336;28;20797;-68
2022/12/15 14:01:54;;;;;;;17.27;11.03;;;-1.70;99.90;;;;;;5029563;28;20809;-68
2022/12/15 14:04:20;;;;;;;20.30;11.97;;;-1.70;99.90;;;;;;5029449;28;20437;-69
2022/12/15 14:06:59;;;;;;;15.13;9.97;;;-1.70;99.90;;;;;;5037140;28;20225;-69
2022/12/15 14:09:34;;;;;;;24.17;13.37;;;-1.70;99.90;;;;;;5027521;28;20406;-68
2022/12/15 14:12:06;;;;;;;21.70;11.10;;;-1.80;99.90;;;;;;5031095;28;21005;-68
2022/12/15 14:14:41;;;;;;;24.67;13.77;;;-1.80;99.90;;;;;;5029712;28;20445;-69
2022/12/15 14:17:13;;;;;;;18.30;11.73;;;-1.80;99.90;;;;;;5032317;28;20422;-68
2022/12/15 14:19:41;;;;;;;22.97;11.67;;;-1.90;99.90;;;;;;5033650;28;20853;-68
2022/12/15 14:22:22;;;;;;;17.63;13.07;;;-1.90;99.90;;;;;;5035337;28;20453;-68
2022/12/15 14:24:49;;;;;;;16.93;11.13;;;-1.90;99.90;;;;;;5040209;28;20430;-68
2022/12/15 14:27:26;;;;;;;26.50;11.67;;;-2.00;99.90;;;;;;5037867;28;20418;-68
2022/12/15 14:30:25;;;;;;;21.20;12.03;;;-2.00;99.90;;;;;;5032931;28;20935;-69
2022/12/15 14:32:56;;;;;;;15.73;11.53;;;-2.10;99.90;;;;;;5032430;28;20818;-69
2022/12/15 14:35:24;;;;;;;20.97;11.73;;;-2.10;99.90;;;;;;5029625;28;20987;-67
2022/12/15 14:37:51;;;;;;;15.97;10.97;;;-2.10;99.90;;;;;;5035687;28;20451;-68
2022/12/15 14:40:18;;;;;;;22.67;11.00;;;-2.20;99.90;;;;;;5033499;28;20445;-68
2022/12/15 14:42:45;;;;;;;25.07;14.30;;;-2.20;99.90;;;;;;5021542;28;21048;-68
2022/12/15 14:45:19;;;;;;;23.50;13.53;;;-2.30;99.90;;;;;;5034811;28;20785;-69
2022/12/15 14:47:52;;;;;;;18.30;11.03;;;-2.30;99.90;;;;;;5040609;28;20604;-70
2022/12/15 14:50:21;;;;;;;34.17;13.50;;;-2.30;99.90;;;;;;5030894;28;20769;-69
2022/12/15 14:52:56;;;;;;;22.00;11.13;;;-2.40;99.90;;;;;;5033466;28;20783;-69
2022/12/15 14:55:34;;;;;;;17.23;10.30;;;-2.40;99.90;;;;;;5033160;28;20810;-69
2022/12/15 14:58:01;;;;;;;16.57;11.60;;;-2.50;99.90;;;;;;5032891;28;20433;-69
2022/12/15 15:00:33;;;;;;;21.80;10.93;;;-2.50;99.90;;;;;;5038801;28;20416;-68
2022/12/15 15:03:18;;;;;;;24.63;13.20;;;-2.50;99.90;;;;;;5032289;28;20592;-68
2022/12/15 15:06:09;;;;;;;15.60;11.10;;;-2.50;99.90;;;;;;5034809;28;20405;-69
2022/12/15 15:09:17;;;;;;;18.93;11.03;;;-2.50;99.90;;;;;;5031692;28;20857;-67
2022/12/15 15:11:43;;;;;;;23.80;13.50;;;-2.60;99.90;;;;;;5034902;28;20449;-69
2022/12/15 15:14:15;;;;;;;18.17;12.37;;;-2.70;99.90;;;;;;5031976;28;20469;-67
2022/12/15 15:16:41;;;;;;;16.07;11.67;;;-2.70;99.90;;;;;;5032255;28;20168;-68